Trident Challenger — V7TY7 — position and weather

sailwx.info

Track history (hours):
 
Tides and Currents Weather Stations Pressure Air Temp Water Temp Dewpoint Dewpoint Depression Visibility Wind Speed Wind Dir Waves Ship Positions

Trident Challenger

Last reported at 2015-May-15 23:27 UTC. Time now 2015-May-27 14:02 UTC.
Position S 22°59' W 041°21'.
Warning: this ship's position is 11 days out of date.

Length 189 m; draft 10.6 m.

Type: Ship (hazmat cat C). MMSI: 538003908.

Date/timePositionNaut miles runAvg speedWind from/ knotsBaromVisibWave heightAir tempDewpointWater temp
2015-May-15 23:27S 22°59' W 041°21'1111.0
2015-May-15 22:29S 23°08' W 041°28'  
2015-May-11 04:28S 34°52' W 057°22'0 0.0
2015-May-11 03:28S 34°52' W 057°22'0 0.2
2015-May-11 02:22S 34°52' W 057°22'12 0.6
2015-May-10 06:30S 34°46' W 057°35'1010.7
2015-May-10 05:33S 34°44' W 057°47'4 3.3
2015-May-10 04:25S 34°43' W 057°52'0 0.0
2015-May-10 03:31S 34°43' W 057°52'0 0.1
2015-May-10 02:31S 34°43' W 057°52'0 0.1
2015-May-10 01:31S 34°43' W 057°52'0 0.0
2015-May-10 00:31S 34°43' W 057°52'0 0.0
2015-May-09 23:31S 34°43' W 057°52'0 0.1
2015-May-09 22:31S 34°43' W 057°52'5 5.0
2015-May-09 21:34S 34°41' W 057°57'1111.5
2015-May-09 20:34S 34°37' W 058°10'1010.3
2015-May-09 19:34S 34°31' W 058°21'1510.5
2015-May-09 18:08S 34°19' W 058°30'  
Track history (hours):
 
Tides and Currents Weather Stations Pressure Air Temp Water Temp Dewpoint Dewpoint Depression Visibility Wind Speed Wind Dir Waves Ship Positions

Trident Challenger

Last reported at 2015-May-15 23:27 UTC. Time now 2015-May-27 14:02 UTC.
Position S 22°59' W 041°21'.
Warning: this ship's position is 11 days out of date.

Length 189 m; draft 10.6 m.

Type: Ship (hazmat cat C). MMSI: 538003908.

Date/timePositionNaut miles runAvg speedWind from/ knotsBaromVisibWave heightAir tempDewpointWater temp
2015-May-15 23:27S 22°59' W 041°21'1111.0
2015-May-15 22:29S 23°08' W 041°28'  
2015-May-11 04:28S 34°52' W 057°22'0 0.0
2015-May-11 03:28S 34°52' W 057°22'0 0.2
2015-May-11 02:22S 34°52' W 057°22'12 0.6
2015-May-10 06:30S 34°46' W 057°35'1010.7
2015-May-10 05:33S 34°44' W 057°47'4 3.3
2015-May-10 04:25S 34°43' W 057°52'0 0.0
2015-May-10 03:31S 34°43' W 057°52'0 0.1
2015-May-10 02:31S 34°43' W 057°52'0 0.1
2015-May-10 01:31S 34°43' W 057°52'0 0.0
2015-May-10 00:31S 34°43' W 057°52'0 0.0
2015-May-09 23:31S 34°43' W 057°52'0 0.1
2015-May-09 22:31S 34°43' W 057°52'5 5.0
2015-May-09 21:34S 34°41' W 057°57'1111.5
2015-May-09 20:34S 34°37' W 058°10'1010.3
2015-May-09 19:34S 34°31' W 058°21'1510.5
2015-May-09 18:08S 34°19' W 058°30'  

Dump ship's entire track history